sensor_id;sensor_type;location;lat;lon;timestamp;P1;durP1;ratioP1;P2;durP2;ratioP2
4023;SDS011;2026;51.002;13.668;2023-04-19T00:04:48;17.60;;;13.23;;
4023;SDS011;2026;51.002;13.668;2023-04-19T00:09:51;17.93;;;12.10;;
4023;SDS011;2026;51.002;13.668;2023-04-19T00:14:54;15.43;;;11.37;;
4023;SDS011;2026;51.002;13.668;2023-04-19T00:19:58;15.63;;;10.90;;
4023;SDS011;2026;51.002;13.668;2023-04-19T00:25:02;14.67;;;10.43;;
4023;SDS011;2026;51.002;13.668;2023-04-19T00:30:05;18.60;;;13.43;;
4023;SDS011;2026;51.002;13.668;2023-04-19T00:35:10;17.70;;;12.37;;
4023;SDS011;2026;51.002;13.668;2023-04-19T00:40:13;15.67;;;11.47;;
4023;SDS011;2026;51.002;13.668;2023-04-19T00:45:16;16.70;;;11.30;;
4023;SDS011;2026;51.002;13.668;2023-04-19T00:50:21;17.53;;;13.23;;
4023;SDS011;2026;51.002;13.668;2023-04-19T00:55:24;15.27;;;9.90;;
4023;SDS011;2026;51.002;13.668;2023-04-19T01:00:27;14.77;;;9.30;;
4023;SDS011;2026;51.002;13.668;2023-04-19T01:05:31;15.53;;;9.73;;
4023;SDS011;2026;51.002;13.668;2023-04-19T01:10:34;18.60;;;11.90;;
4023;SDS011;2026;51.002;13.668;2023-04-19T01:15:37;15.50;;;10.37;;
4023;SDS011;2026;51.002;13.668;2023-04-19T01:20:42;16.20;;;10.13;;
4023;SDS011;2026;51.002;13.668;2023-04-19T01:25:46;14.77;;;9.73;;
4023;SDS011;2026;51.002;13.668;2023-04-19T01:30:49;15.33;;;9.67;;
4023;SDS011;2026;51.002;13.668;2023-04-19T01:35:54;15.70;;;9.77;;
4023;SDS011;2026;51.002;13.668;2023-04-19T01:40:58;13.70;;;9.93;;
4023;SDS011;2026;51.002;13.668;2023-04-19T01:46:01;17.47;;;10.07;;
4023;SDS011;2026;51.002;13.668;2023-04-19T01:51:04;14.40;;;10.20;;
4023;SDS011;2026;51.002;13.668;2023-04-19T01:56:10;16.30;;;10.73;;
4023;SDS011;2026;51.002;13.668;2023-04-19T02:01:13;21.00;;;12.60;;
4023;SDS011;2026;51.002;13.668;2023-04-19T02:06:16;19.47;;;11.57;;
4023;SDS011;2026;51.002;13.668;2023-04-19T02:11:20;19.20;;;12.03;;
4023;SDS011;2026;51.002;13.668;2023-04-19T02:16:23;17.97;;;11.37;;
4023;SDS011;2026;51.002;13.668;2023-04-19T02:21:26;16.27;;;10.73;;
4023;SDS011;2026;51.002;13.668;2023-04-19T02:26:30;18.37;;;11.60;;
4023;SDS011;2026;51.002;13.668;2023-04-19T02:31:34;19.23;;;11.43;;
4023;SDS011;2026;51.002;13.668;2023-04-19T02:36:38;15.70;;;11.67;;
4023;SDS011;2026;51.002;13.668;2023-04-19T02:41:42;16.53;;;11.73;;
4023;SDS011;2026;51.002;13.668;2023-04-19T02:46:47;21.10;;;12.60;;
4023;SDS011;2026;51.002;13.668;2023-04-19T02:51:50;18.30;;;13.00;;
4023;SDS011;2026;51.002;13.668;2023-04-19T02:56:55;21.20;;;11.17;;
4023;SDS011;2026;51.002;13.668;2023-04-19T03:01:58;16.90;;;11.83;;
4023;SDS011;2026;51.002;13.668;2023-04-19T03:07:01;15.20;;;10.73;;
4023;SDS011;2026;51.002;13.668;2023-04-19T03:12:06;16.63;;;9.93;;
4023;SDS011;2026;51.002;13.668;2023-04-19T03:17:09;14.80;;;10.47;;
4023;SDS011;2026;51.002;13.668;2023-04-19T03:22:12;24.80;;;12.10;;
4023;SDS011;2026;51.002;13.668;2023-04-19T03:27:17;18.67;;;12.80;;
4023;SDS011;2026;51.002;13.668;2023-04-19T03:32:25;28.70;;;15.33;;
4023;SDS011;2026;51.002;13.668;2023-04-19T03:37:28;22.70;;;13.60;;
4023;SDS011;2026;51.002;13.668;2023-04-19T03:42:33;27.80;;;13.43;;
4023;SDS011;2026;51.002;13.668;2023-04-19T03:47:59;27.83;;;20.00;;
4023;SDS011;2026;51.002;13.668;2023-04-19T03:53:04;23.10;;;15.00;;
4023;SDS011;2026;51.002;13.668;2023-04-19T03:58:09;23.17;;;13.87;;
4023;SDS011;2026;51.002;13.668;2023-04-19T04:03:21;26.73;;;14.30;;
4023;SDS011;2026;51.002;13.668;2023-04-19T04:08:25;23.77;;;14.90;;
4023;SDS011;2026;51.002;13.668;2023-04-19T04:13:29;25.47;;;16.10;;
4023;SDS011;2026;51.002;13.668;2023-04-19T04:18:46;28.23;;;14.90;;
4023;SDS011;2026;51.002;13.668;2023-04-19T04:23:50;27.13;;;15.30;;
4023;SDS011;2026;51.002;13.668;2023-04-19T04:29:03;24.00;;;15.50;;
4023;SDS011;2026;51.002;13.668;2023-04-19T04:34:08;30.47;;;16.27;;
4023;SDS011;2026;51.002;13.668;2023-04-19T04:39:20;20.67;;;13.87;;
4023;SDS011;2026;51.002;13.668;2023-04-19T04:44:24;19.43;;;12.97;;
4023;SDS011;2026;51.002;13.668;2023-04-19T04:49:28;17.67;;;11.93;;
4023;SDS011;2026;51.002;13.668;2023-04-19T04:54:32;21.37;;;11.50;;
4023;SDS011;2026;51.002;13.668;2023-04-19T04:59:36;17.67;;;10.80;;
4023;SDS011;2026;51.002;13.668;2023-04-19T05:04:40;20.50;;;11.67;;
4023;SDS011;2026;51.002;13.668;2023-04-19T05:09:43;18.23;;;11.23;;
4023;SDS011;2026;51.002;13.668;2023-04-19T05:14:52;16.50;;;9.30;;
4023;SDS011;2026;51.002;13.668;2023-04-19T05:19:56;13.63;;;7.57;;
4023;SDS011;2026;51.002;13.668;2023-04-19T05:24:59;12.17;;;7.67;;
4023;SDS011;2026;51.002;13.668;2023-04-19T05:30:04;13.13;;;7.87;;
4023;SDS011;2026;51.002;13.668;2023-04-19T05:35:13;14.13;;;9.27;;
4023;SDS011;2026;51.002;13.668;2023-04-19T05:40:17;12.50;;;8.90;;
4023;SDS011;2026;51.002;13.668;2023-04-19T05:45:22;14.53;;;8.80;;
4023;SDS011;2026;51.002;13.668;2023-04-19T05:50:25;14.83;;;8.93;;
4023;SDS011;2026;51.002;13.668;2023-04-19T05:56:07;12.40;;;8.27;;
4023;SDS011;2026;51.002;13.668;2023-04-19T06:01:11;9.80;;;5.23;;
4023;SDS011;2026;51.002;13.668;2023-04-19T06:06:14;8.37;;;4.30;;
4023;SDS011;2026;51.002;13.668;2023-04-19T06:11:18;8.60;;;4.10;;
4023;SDS011;2026;51.002;13.668;2023-04-19T06:16:33;6.20;;;4.40;;
4023;SDS011;2026;51.002;13.668;2023-04-19T06:21:36;6.17;;;3.90;;
4023;SDS011;2026;51.002;13.668;2023-04-19T06:26:39;6.53;;;4.30;;
4023;SDS011;2026;51.002;13.668;2023-04-19T06:31:43;8.73;;;4.27;;
4023;SDS011;2026;51.002;13.668;2023-04-19T06:36:47;6.53;;;4.10;;
4023;SDS011;2026;51.002;13.668;2023-04-19T06:41:50;8.20;;;4.00;;
4023;SDS011;2026;51.002;13.668;2023-04-19T06:46:54;7.27;;;4.57;;
4023;SDS011;2026;51.002;13.668;2023-04-19T06:51:58;6.70;;;3.57;;
4023;SDS011;2026;51.002;13.668;2023-04-19T06:57:02;6.83;;;3.53;;
4023;SDS011;2026;51.002;13.668;2023-04-19T07:02:06;4.70;;;3.47;;
4023;SDS011;2026;51.002;13.668;2023-04-19T07:07:09;6.77;;;3.40;;
4023;SDS011;2026;51.002;13.668;2023-04-19T07:12:12;4.47;;;3.10;;
4023;SDS011;2026;51.002;13.668;2023-04-19T07:17:16;4.60;;;3.53;;
4023;SDS011;2026;51.002;13.668;2023-04-19T07:22:20;6.60;;;3.60;;
4023;SDS011;2026;51.002;13.668;2023-04-19T07:27:23;5.47;;;3.93;;
4023;SDS011;2026;51.002;13.668;2023-04-19T07:32:28;3.70;;;3.30;;
4023;SDS011;2026;51.002;13.668;2023-04-19T07:37:33;5.90;;;3.60;;
4023;SDS011;2026;51.002;13.668;2023-04-19T07:42:36;4.60;;;3.20;;
4023;SDS011;2026;51.002;13.668;2023-04-19T07:47:40;8.40;;;3.10;;
4023;SDS011;2026;51.002;13.668;2023-04-19T07:52:43;4.73;;;3.30;;
4023;SDS011;2026;51.002;13.668;2023-04-19T07:57:46;5.50;;;3.60;;
4023;SDS011;2026;51.002;13.668;2023-04-19T08:02:50;3.33;;;3.03;;
4023;SDS011;2026;51.002;13.668;2023-04-19T08:07:54;4.53;;;3.70;;
4023;SDS011;2026;51.002;13.668;2023-04-19T08:12:57;5.10;;;3.60;;
4023;SDS011;2026;51.002;13.668;2023-04-19T08:18:08;5.30;;;3.33;;
4023;SDS011;2026;51.002;13.668;2023-04-19T08:23:11;6.10;;;3.23;;
4023;SDS011;2026;51.002;13.668;2023-04-19T08:28:26;4.73;;;3.70;;
4023;SDS011;2026;51.002;13.668;2023-04-19T08:33:30;4.40;;;3.00;;
4023;SDS011;2026;51.002;13.668;2023-04-19T08:38:33;8.10;;;3.60;;
4023;SDS011;2026;51.002;13.668;2023-04-19T08:43:36;8.10;;;3.67;;
4023;SDS011;2026;51.002;13.668;2023-04-19T08:48:43;6.40;;;3.70;;
4023;SDS011;2026;51.002;13.668;2023-04-19T08:53:48;5.60;;;3.43;;
4023;SDS011;2026;51.002;13.668;2023-04-19T08:58:53;7.00;;;4.00;;
4023;SDS011;2026;51.002;13.668;2023-04-19T09:04:00;6.47;;;3.90;;
4023;SDS011;2026;51.002;13.668;2023-04-19T09:09:24;6.37;;;3.67;;
4023;SDS011;2026;51.002;13.668;2023-04-19T09:14:30;8.33;;;4.37;;
4023;SDS011;2026;51.002;13.668;2023-04-19T09:19:42;6.93;;;4.23;;
4023;SDS011;2026;51.002;13.668;2023-04-19T09:24:48;8.80;;;4.37;;
4023;SDS011;2026;51.002;13.668;2023-04-19T09:29:55;7.70;;;4.17;;
4023;SDS011;2026;51.002;13.668;2023-04-19T09:35:00;4.63;;;3.87;;
4023;SDS011;2026;51.002;13.668;2023-04-19T09:45:25;6.87;;;4.20;;
4023;SDS011;2026;51.002;13.668;2023-04-19T09:50:32;6.33;;;4.13;;
4023;SDS011;2026;51.002;13.668;2023-04-19T09:55:54;11.70;;;4.70;;
4023;SDS011;2026;51.002;13.668;2023-04-19T10:01:03;5.87;;;4.27;;
4023;SDS011;2026;51.002;13.668;2023-04-19T10:06:17;5.00;;;3.70;;
4023;SDS011;2026;51.002;13.668;2023-04-19T10:11:24;5.30;;;4.17;;
4023;SDS011;2026;51.002;13.668;2023-04-19T10:16:28;7.70;;;4.10;;
4023;SDS011;2026;51.002;13.668;2023-04-19T10:21:34;6.10;;;4.17;;
4023;SDS011;2026;51.002;13.668;2023-04-19T10:32:11;6.00;;;3.93;;
4023;SDS011;2026;51.002;13.668;2023-04-19T10:37:16;7.20;;;4.03;;
4023;SDS011;2026;51.002;13.668;2023-04-19T10:42:22;6.37;;;4.33;;
4023;SDS011;2026;51.002;13.668;2023-04-19T10:47:39;4.90;;;3.90;;
4023;SDS011;2026;51.002;13.668;2023-04-19T10:52:44;6.03;;;4.50;;
4023;SDS011;2026;51.002;13.668;2023-04-19T10:58:03;8.97;;;4.90;;
4023;SDS011;2026;51.002;13.668;2023-04-19T11:08:44;6.07;;;3.87;;
4023;SDS011;2026;51.002;13.668;2023-04-19T11:13:48;5.23;;;3.90;;
4023;SDS011;2026;51.002;13.668;2023-04-19T11:18:51;6.63;;;4.33;;
4023;SDS011;2026;51.002;13.668;2023-04-19T11:24:08;6.10;;;4.00;;
4023;SDS011;2026;51.002;13.668;2023-04-19T11:29:11;6.70;;;4.03;;
4023;SDS011;2026;51.002;13.668;2023-04-19T11:34:14;9.43;;;3.80;;
4023;SDS011;2026;51.002;13.668;2023-04-19T11:39:19;9.33;;;4.53;;
4023;SDS011;2026;51.002;13.668;2023-04-19T11:44:22;12.90;;;4.30;;
4023;SDS011;2026;51.002;13.668;2023-04-19T11:49:26;6.37;;;4.60;;
4023;SDS011;2026;51.002;13.668;2023-04-19T11:54:31;5.40;;;4.33;;
4023;SDS011;2026;51.002;13.668;2023-04-19T11:59:34;6.37;;;4.23;;
4023;SDS011;2026;51.002;13.668;2023-04-19T12:04:38;5.70;;;4.00;;
4023;SDS011;2026;51.002;13.668;2023-04-19T12:09:43;8.60;;;3.93;;
4023;SDS011;2026;51.002;13.668;2023-04-19T12:14:50;5.03;;;4.00;;
4023;SDS011;2026;51.002;13.668;2023-04-19T12:19:53;5.90;;;3.80;;
4023;SDS011;2026;51.002;13.668;2023-04-19T12:24:58;6.60;;;4.13;;
4023;SDS011;2026;51.002;13.668;2023-04-19T12:30:01;15.03;;;4.63;;
4023;SDS011;2026;51.002;13.668;2023-04-19T12:35:07;9.07;;;4.10;;
4023;SDS011;2026;51.002;13.668;2023-04-19T12:40:13;7.80;;;4.63;;
4023;SDS011;2026;51.002;13.668;2023-04-19T12:45:17;6.10;;;4.10;;
4023;SDS011;2026;51.002;13.668;2023-04-19T12:50:20;7.30;;;4.93;;
4023;SDS011;2026;51.002;13.668;2023-04-19T12:55:25;15.57;;;4.77;;
4023;SDS011;2026;51.002;13.668;2023-04-19T13:00:28;5.40;;;3.97;;
4023;SDS011;2026;51.002;13.668;2023-04-19T13:05:31;10.93;;;5.30;;
4023;SDS011;2026;51.002;13.668;2023-04-19T13:10:35;12.23;;;4.47;;
4023;SDS011;2026;51.002;13.668;2023-04-19T13:15:38;6.70;;;4.30;;
4023;SDS011;2026;51.002;13.668;2023-04-19T13:20:42;9.00;;;4.60;;
4023;SDS011;2026;51.002;13.668;2023-04-19T13:25:46;4.87;;;4.37;;
4023;SDS011;2026;51.002;13.668;2023-04-19T13:30:49;7.70;;;4.60;;
4023;SDS011;2026;51.002;13.668;2023-04-19T13:35:53;8.27;;;4.80;;
4023;SDS011;2026;51.002;13.668;2023-04-19T13:40:57;10.07;;;4.50;;
4023;SDS011;2026;51.002;13.668;2023-04-19T13:46:01;7.70;;;5.00;;
4023;SDS011;2026;51.002;13.668;2023-04-19T13:51:04;7.23;;;4.80;;
4023;SDS011;2026;51.002;13.668;2023-04-19T13:56:09;5.80;;;5.03;;
4023;SDS011;2026;51.002;13.668;2023-04-19T14:01:12;9.37;;;5.00;;
4023;SDS011;2026;51.002;13.668;2023-04-19T14:06:15;6.83;;;4.40;;
4023;SDS011;2026;51.002;13.668;2023-04-19T14:11:19;6.37;;;4.60;;
4023;SDS011;2026;51.002;13.668;2023-04-19T14:16:23;4.90;;;3.77;;
4023;SDS011;2026;51.002;13.668;2023-04-19T14:21:26;8.60;;;4.67;;
4023;SDS011;2026;51.002;13.668;2023-04-19T14:26:31;6.47;;;4.97;;
4023;SDS011;2026;51.002;13.668;2023-04-19T14:31:34;8.03;;;5.67;;
4023;SDS011;2026;51.002;13.668;2023-04-19T14:36:37;6.50;;;5.47;;
4023;SDS011;2026;51.002;13.668;2023-04-19T14:41:41;10.07;;;5.90;;
4023;SDS011;2026;51.002;13.668;2023-04-19T14:46:44;8.70;;;5.80;;
4023;SDS011;2026;51.002;13.668;2023-04-19T14:51:47;8.33;;;5.53;;
4023;SDS011;2026;51.002;13.668;2023-04-19T14:56:52;8.10;;;5.50;;
4023;SDS011;2026;51.002;13.668;2023-04-19T15:01:55;11.27;;;5.03;;
4023;SDS011;2026;51.002;13.668;2023-04-19T15:06:58;5.60;;;4.33;;
4023;SDS011;2026;51.002;13.668;2023-04-19T15:12:02;8.40;;;6.93;;
4023;SDS011;2026;51.002;13.668;2023-04-19T15:17:06;6.83;;;4.43;;
4023;SDS011;2026;51.002;13.668;2023-04-19T15:22:09;6.93;;;5.10;;
4023;SDS011;2026;51.002;13.668;2023-04-19T15:27:13;7.47;;;5.50;;
4023;SDS011;2026;51.002;13.668;2023-04-19T15:32:16;7.63;;;5.27;;
4023;SDS011;2026;51.002;13.668;2023-04-19T15:37:22;9.90;;;6.07;;
4023;SDS011;2026;51.002;13.668;2023-04-19T15:42:26;9.77;;;6.20;;
4023;SDS011;2026;51.002;13.668;2023-04-19T15:47:29;9.20;;;5.87;;
4023;SDS011;2026;51.002;13.668;2023-04-19T15:52:32;7.40;;;6.40;;
4023;SDS011;2026;51.002;13.668;2023-04-19T15:57:37;12.13;;;7.63;;
4023;SDS011;2026;51.002;13.668;2023-04-19T16:02:40;10.40;;;7.13;;
4023;SDS011;2026;51.002;13.668;2023-04-19T16:07:43;8.40;;;6.63;;
4023;SDS011;2026;51.002;13.668;2023-04-19T16:12:48;10.27;;;7.40;;
4023;SDS011;2026;51.002;13.668;2023-04-19T16:17:51;9.30;;;6.80;;
4023;SDS011;2026;51.002;13.668;2023-04-19T16:22:54;11.63;;;6.57;;
4023;SDS011;2026;51.002;13.668;2023-04-19T16:28:00;11.33;;;6.50;;
4023;SDS011;2026;51.002;13.668;2023-04-19T16:33:04;9.27;;;6.97;;
4023;SDS011;2026;51.002;13.668;2023-04-19T16:38:07;12.47;;;8.20;;
4023;SDS011;2026;51.002;13.668;2023-04-19T16:43:12;7.53;;;5.70;;
4023;SDS011;2026;51.002;13.668;2023-04-19T16:48:15;8.53;;;6.23;;
4023;SDS011;2026;51.002;13.668;2023-04-19T16:53:18;8.67;;;6.10;;
4023;SDS011;2026;51.002;13.668;2023-04-19T16:58:22;9.63;;;7.13;;
4023;SDS011;2026;51.002;13.668;2023-04-19T17:03:25;11.57;;;6.50;;
4023;SDS011;2026;51.002;13.668;2023-04-19T17:08:31;8.47;;;6.23;;
4023;SDS011;2026;51.002;13.668;2023-04-19T17:13:35;9.57;;;6.63;;
4023;SDS011;2026;51.002;13.668;2023-04-19T17:18:39;11.57;;;7.00;;
4023;SDS011;2026;51.002;13.668;2023-04-19T17:23:43;9.07;;;6.43;;
4023;SDS011;2026;51.002;13.668;2023-04-19T17:28:47;10.53;;;7.73;;
4023;SDS011;2026;51.002;13.668;2023-04-19T17:33:51;9.97;;;8.03;;
4023;SDS011;2026;51.002;13.668;2023-04-19T17:38:54;10.27;;;6.77;;
4023;SDS011;2026;51.002;13.668;2023-04-19T17:43:59;10.60;;;7.43;;
4023;SDS011;2026;51.002;13.668;2023-04-19T17:49:03;9.60;;;7.93;;
4023;SDS011;2026;51.002;13.668;2023-04-19T17:54:06;10.13;;;7.47;;
4023;SDS011;2026;51.002;13.668;2023-04-19T17:59:10;10.93;;;7.73;;
4023;SDS011;2026;51.002;13.668;2023-04-19T18:04:14;9.03;;;6.73;;
4023;SDS011;2026;51.002;13.668;2023-04-19T18:09:20;10.03;;;7.67;;
4023;SDS011;2026;51.002;13.668;2023-04-19T18:14:24;11.23;;;7.17;;
4023;SDS011;2026;51.002;13.668;2023-04-19T18:19:27;10.50;;;8.00;;
4023;SDS011;2026;51.002;13.668;2023-04-19T18:24:30;8.87;;;7.30;;
4023;SDS011;2026;51.002;13.668;2023-04-19T18:29:35;8.97;;;6.00;;
4023;SDS011;2026;51.002;13.668;2023-04-19T18:34:38;8.63;;;6.23;;
4023;SDS011;2026;51.002;13.668;2023-04-19T18:39:41;12.57;;;6.80;;
4023;SDS011;2026;51.002;13.668;2023-04-19T18:44:45;12.60;;;8.90;;
4023;SDS011;2026;51.002;13.668;2023-04-19T18:49:51;9.60;;;7.40;;
4023;SDS011;2026;51.002;13.668;2023-04-19T18:55:06;10.10;;;7.53;;
4023;SDS011;2026;51.002;13.668;2023-04-19T19:00:12;12.43;;;7.30;;
4023;SDS011;2026;51.002;13.668;2023-04-19T19:05:16;12.47;;;7.67;;
4023;SDS011;2026;51.002;13.668;2023-04-19T19:10:19;11.50;;;7.23;;
4023;SDS011;2026;51.002;13.668;2023-04-19T19:15:43;12.00;;;7.10;;
4023;SDS011;2026;51.002;13.668;2023-04-19T19:20:47;29.93;;;17.20;;
4023;SDS011;2026;51.002;13.668;2023-04-19T19:25:51;12.30;;;8.23;;
4023;SDS011;2026;51.002;13.668;2023-04-19T19:30:56;11.87;;;8.77;;
4023;SDS011;2026;51.002;13.668;2023-04-19T19:35:59;15.73;;;9.63;;
4023;SDS011;2026;51.002;13.668;2023-04-19T19:41:03;11.20;;;7.63;;
4023;SDS011;2026;51.002;13.668;2023-04-19T19:46:10;11.23;;;7.70;;
4023;SDS011;2026;51.002;13.668;2023-04-19T19:51:14;12.20;;;7.80;;
4023;SDS011;2026;51.002;13.668;2023-04-19T19:56:37;9.67;;;7.00;;
4023;SDS011;2026;51.002;13.668;2023-04-19T20:02:01;8.57;;;7.17;;
4023;SDS011;2026;51.002;13.668;2023-04-19T20:07:04;11.43;;;6.37;;
4023;SDS011;2026;51.002;13.668;2023-04-19T20:12:27;8.13;;;6.70;;
4023;SDS011;2026;51.002;13.668;2023-04-19T20:17:32;7.37;;;5.90;;
4023;SDS011;2026;51.002;13.668;2023-04-19T20:22:35;8.77;;;6.53;;
4023;SDS011;2026;51.002;13.668;2023-04-19T20:27:38;7.67;;;5.83;;
4023;SDS011;2026;51.002;13.668;2023-04-19T20:32:42;6.70;;;6.00;;
4023;SDS011;2026;51.002;13.668;2023-04-19T20:37:45;9.10;;;6.17;;
4023;SDS011;2026;51.002;13.668;2023-04-19T20:42:48;8.17;;;5.90;;
4023;SDS011;2026;51.002;13.668;2023-04-19T20:47:53;8.83;;;6.40;;
4023;SDS011;2026;51.002;13.668;2023-04-19T20:52:56;7.33;;;6.10;;
4023;SDS011;2026;51.002;13.668;2023-04-19T20:57:59;8.97;;;6.10;;
4023;SDS011;2026;51.002;13.668;2023-04-19T21:03:04;6.93;;;6.00;;
4023;SDS011;2026;51.002;13.668;2023-04-19T21:08:08;10.37;;;5.83;;
4023;SDS011;2026;51.002;13.668;2023-04-19T21:13:11;6.90;;;5.97;;
4023;SDS011;2026;51.002;13.668;2023-04-19T21:18:15;7.33;;;5.50;;
4023;SDS011;2026;51.002;13.668;2023-04-19T21:23:18;6.50;;;5.40;;
4023;SDS011;2026;51.002;13.668;2023-04-19T21:28:21;7.13;;;5.30;;
4023;SDS011;2026;51.002;13.668;2023-04-19T21:33:26;5.50;;;4.87;;
4023;SDS011;2026;51.002;13.668;2023-04-19T21:38:29;6.63;;;4.73;;
4023;SDS011;2026;51.002;13.668;2023-04-19T21:43:32;6.37;;;5.00;;
4023;SDS011;2026;51.002;13.668;2023-04-19T21:48:37;6.47;;;4.93;;
4023;SDS011;2026;51.002;13.668;2023-04-19T21:53:40;7.90;;;5.20;;
4023;SDS011;2026;51.002;13.668;2023-04-19T21:58:43;5.50;;;4.40;;
4023;SDS011;2026;51.002;13.668;2023-04-19T22:03:47;7.50;;;5.43;;
4023;SDS011;2026;51.002;13.668;2023-04-19T22:08:51;6.37;;;5.60;;
4023;SDS011;2026;51.002;13.668;2023-04-19T22:13:54;6.13;;;5.53;;
4023;SDS011;2026;51.002;13.668;2023-04-19T22:18:58;5.87;;;4.73;;
4023;SDS011;2026;51.002;13.668;2023-04-19T22:24:01;8.00;;;5.20;;
4023;SDS011;2026;51.002;13.668;2023-04-19T22:29:05;7.60;;;5.40;;
4023;SDS011;2026;51.002;13.668;2023-04-19T22:34:09;7.20;;;5.13;;
4023;SDS011;2026;51.002;13.668;2023-04-19T22:39:12;7.90;;;5.57;;
4023;SDS011;2026;51.002;13.668;2023-04-19T22:44:16;7.70;;;5.10;;
4023;SDS011;2026;51.002;13.668;2023-04-19T22:49:21;7.87;;;5.70;;
4023;SDS011;2026;51.002;13.668;2023-04-19T22:54:24;7.40;;;5.67;;
4023;SDS011;2026;51.002;13.668;2023-04-19T22:59:27;6.90;;;5.43;;
4023;SDS011;2026;51.002;13.668;2023-04-19T23:04:32;6.63;;;5.70;;
4023;SDS011;2026;51.002;13.668;2023-04-19T23:09:36;6.87;;;5.23;;
4023;SDS011;2026;51.002;13.668;2023-04-19T23:14:39;6.50;;;4.90;;
4023;SDS011;2026;51.002;13.668;2023-04-19T23:19:44;5.10;;;4.43;;
4023;SDS011;2026;51.002;13.668;2023-04-19T23:24:47;6.43;;;5.20;;
4023;SDS011;2026;51.002;13.668;2023-04-19T23:29:50;6.30;;;4.53;;
4023;SDS011;2026;51.002;13.668;2023-04-19T23:34:54;5.27;;;4.40;;
4023;SDS011;2026;51.002;13.668;2023-04-19T23:39:57;6.10;;;4.70;;
4023;SDS011;2026;51.002;13.668;2023-04-19T23:45:00;7.80;;;5.47;;
4023;SDS011;2026;51.002;13.668;2023-04-19T23:50:05;6.87;;;5.50;;
4023;SDS011;2026;51.002;13.668;2023-04-19T23:55:08;7.37;;;5.50;;
